Flight Track Log - Related Links

Times and Time Zones

All times are in EDT time to prevent confusion due to time zone crossing. See the N45NS flight status page for this flight to view local times or setup timezone preferences in your user account.

Time Position Orientation Groundspeed Altitude Reporting Facility
EDT Latitude Longitude Course Direction KTS MPH feet Rate Location/Type
Wed 11:39:22 AM 40.8461 -81.8225 270° West 205 236 5,200  Level Cleveland Center
Wed 11:40:23 AM 40.8183 -81.8753 235° Southwest 210 242 8,000 2,311 Climbing Cleveland Center
Wed 11:41:24 AM 40.8261 -81.9725 276° West 254 292 9,900 2,537 Climbing Cleveland Center
Wed 11:42:26 AM 40.8325 -82.0653 275° West 255 293 13,200 3,024 Climbing Cleveland Center
Wed 11:43:27 AM 40.8442 -82.1478 281° West 237 273 16,100 2,951 Climbing Cleveland Center
Wed 11:44:00 AM 40.8667 -82.1254 270° West  Level FlightAware Approximate
Wed 11:44:28 AM 40.9006 -82.2258 314° West 287 330 19,200  Level Cleveland Center
Wed 11:45:29 AM 40.9589 -82.3094 313° West 303 349 21,800 2,361 Climbing Cleveland Center
Wed 11:46:30 AM 41.0211 -82.3989 313° West 319 367 24,000 1,902 Climbing Cleveland Center
Wed 11:47:32 AM 41.0892 -82.4958 313° West 350 403 25,700 1,951 Climbing Cleveland Center
Wed 11:48:33 AM 41.1564 -82.5936 312° West 352 405 28,000 2,066 Climbing Cleveland Center
Wed 11:49:34 AM 41.2222 -82.6903 312° West 352 405 29,900 984 Climbing Cleveland Center
Wed 11:50:35 AM 41.2914 -82.7919 312° West 365 420 30,000 49 Climbing Cleveland Center
Wed 11:51:36 AM 41.3686 -82.9047 312° West 403 464 30,000  Level Cleveland Center
Wed 11:52:38 AM 41.4500 -83.0217 313° West 417 480 30,000  Level Cleveland Center
Wed 11:53:39 AM 41.5286 -83.1397 312° West 421 484 30,000  Level Cleveland Center
Wed 11:54:40 AM 41.6097 -83.2619 312° West 415 478 30,000  Level Cleveland Center
Wed 11:55:41 AM 41.6881 -83.3758 313° West 413 475 30,000  Level Cleveland Center
Wed 11:56:43 AM 41.7656 -83.4900 312° West 413 475 30,000  Level Cleveland Center
Wed 11:57:44 AM 41.8422 -83.6042 312° West 413 475 30,000  Level Cleveland Center
Wed 11:58:45 AM 41.9200 -83.7211 312° West 414 476 30,000  Level Cleveland Center
Wed 11:59:46 AM 41.9989 -83.8392 312° West 418 481 30,000  Level Cleveland Center
Wed 12:00:48 PM 42.0503 -83.9706 298° West 397 457 30,000 -195 Level Cleveland Center
Wed 12:01:49 PM 42.0789 -84.1078 286° West 382 440 29,600 -738 Descending Cleveland Center
Wed 12:02:50 PM 42.1067 -84.2481 285° West 385 443 28,500 -1,230 Descending Cleveland Center
Wed 12:03:51 PM 42.1344 -84.3864 285° West 384 442 27,100 -1,230 Descending Cleveland Center
Wed 12:04:52 PM 42.1672 -84.5536 285° West 384 442 26,000 -537 Descending Cleveland Center
Wed 12:05:54 PM 42.1928 -84.6811 285° West 385 443 26,000  Level Cleveland Center
Wed 12:06:55 PM 42.2214 -84.8244 285° West 395 455 26,000  Level Cleveland Center
Wed 12:07:56 PM 42.2506 -84.9683 285° West 397 457 26,000  Level Cleveland Center
Wed 12:08:57 PM 42.2781 -85.1142 284° West 401 461 26,000  Level Cleveland Center
Wed 12:09:58 PM 42.3128 -85.2889 285° West 403 464 26,000  Level Cleveland Center
Wed 12:11:00 PM 42.3400 -85.4358 284° West 404 465 26,000 -390 Level Cleveland Center
Wed 12:12:01 PM 42.3650 -85.5631 285° West 401 461 25,200 -1,131 Descending Cleveland Center
Wed 12:13:02 PM 42.3914 -85.7047 284° West 393 452 23,700 -1,525 Descending Cleveland Center
Wed 12:14:03 PM 42.4222 -85.8700 284° West 379 436 22,100 -1,475 Descending Cleveland Center
Wed 12:15:04 PM 42.4489 -86.0078 285° West 377 434 20,700 -1,377 Descending Cleveland Center
Wed 12:16:05 PM 42.4758 -86.1414 285° West 375 432 19,300 -1,672 Descending Cleveland Center
Wed 12:17:06 PM 42.4967 -86.2639 283° West 342 394 17,300 -1,720 Descending Cleveland Center
Wed 12:18:28 PM 42.4792 -86.4094 261° West 330 380 15,200 -1,594 Descending Chicago Center
Wed 12:19:29 PM 42.4661 -86.5611 263° West 336 387 13,500 -1,426 Descending Chicago Center
Wed 12:20:30 PM 42.4553 -86.6872 263° West 336 387 12,300 -1,328 Descending Chicago Center
Wed 12:21:31 PM 42.4456 -86.8139 264° West 338 389 10,800 -1,574 Descending Chicago Center
Wed 12:22:32 PM 42.4353 -86.9192 262° West 286 329 9,100 -1,659 Descending Chicago Center
Wed 12:23:34 PM 42.4256 -87.0231 263° West 278 320 7,400 -1,512 Descending Chicago Center
Wed 12:24:35 PM 42.4156 -87.1197 262° West 264 304 6,000 -1,475 Descending Chicago Center
Wed 12:25:36 PM 42.4081 -87.2167 264° West 260 299 4,400 -1,279 Descending Chicago Center
Wed 12:26:37 PM 42.3978 -87.3261 263° West 259 298 3,400 -457 Descending Chicago Center
Wed 12:28:40 PM 42.3667 -87.5167 258° West 264 304 3,000 -127 Descending Chicago TRACON
Wed 12:29:46 PM 42.3667 -87.6167 270° West 248 285 3,000  Level Chicago TRACON
Wed 12:30:40 PM 42.3500 -87.7000 255° West 257 296 3,000  Level Chicago TRACON
Wed 12:31:40 PM 42.3333 -87.8000 257° West 262 302 3,000 -250 Level Chicago TRACON
Wed 12:32:40 PM 42.3167 -87.8833 255° West 223 257 2,500 -316 Descending Chicago TRACON
Wed 12:33:34 PM 42.2833 -87.9333 228° Southwest 197 227 2,400 -67 Descending Chicago TRACON
Wed 12:34:10 PM 42.2625 -87.9722 234° Southwest 219 252 2,400  Level Chicago Center
Wed 12:35:12 PM 42.2031 -87.9503 165° South 224 258 2,400 -195 Level Chicago Center
Wed 12:36:13 PM 42.1472 -87.9192 158° South 224 258 2,000 -393 Descending Chicago Center

Login

Don't have an account? Register now (free) for customized features, flight alerts, and more!